Achille, Oklahoma
Current Conditions -  °F | °C
As of 10:35 AM on Thursday 30 Oct 2014 (Local Time) from KDUA Reporting Station
Clear Clear  
Wind Chill: 64°   Ceiling: Unl
Heat Index: 64°   Visibility: 10mi
Dew Point: 48°   Wind: 15mph
Humidity: 56%   Direction: 200°SSW
Pressure: 30.17"   Gusts: NA
Location:  33.83°N, 96.39°W
Report Text: KDUA 301535Z AUTO 20013KT 10SM CLR 18/09 A3017 RMK AO2
Loading
Personal Weather Stations






























Interactive Weather Map
Tropical Storm Tracking
New forecast layout! Learn more

10-Day Weather Forecast

Advertisements
Track Severe Weather on mobile